Time;durP1;ratioP1;P1;durP2;ratioP2;P2;SDS_P1;SDS_P2;PMS_P1;PMS_P2;Temp;Humidity;BMP_temperature;BMP_pressure;BME280_temperature;BME280_humidity;BME280_pressure;Samples;Min_cycle;Max_cycle;Signal;HPM_P1;HPM_P2
2021/08/07 00:00:45;;;;;;;2.50;2.03;;;;;;;;;;5060294;28;20061;-49
2021/08/07 00:03:11;;;;;;;3.53;2.05;;;;;;;;;;5073086;28;20020;-49
2021/08/07 00:05:37;;;;;;;5.18;2.40;;;;;;;;;;5069125;28;20023;-50
2021/08/07 00:08:03;;;;;;;3.88;2.08;;;;;;;;;;5078996;28;20365;-49
2021/08/07 00:10:29;;;;;;;3.25;2.13;;;;;;;;;;5091954;28;20126;-49
2021/08/07 00:12:55;;;;;;;3.30;2.10;;;;;;;;;;5064838;28;20029;-51
2021/08/07 00:15:21;;;;;;;3.05;1.73;;;;;;;;;;5055867;28;20126;-52
2021/08/07 00:17:48;;;;;;;2.63;2.20;;;;;;;;;;5058663;28;20025;-49
2021/08/07 00:20:14;;;;;;;2.63;2.30;;;;;;;;;;5077835;28;20137;-50
2021/08/07 00:22:40;;;;;;;3.53;2.03;;;;;;;;;;5089415;28;20024;-49
2021/08/07 00:25:06;;;;;;;2.13;1.77;;;;;;;;;;5076372;28;20478;-50
2021/08/07 00:27:32;;;;;;;3.33;1.85;;;;;;;;;;5062867;28;20029;-50
2021/08/07 00:29:58;;;;;;;2.92;2.22;;;;;;;;;;5083284;28;20025;-50
2021/08/07 00:32:24;;;;;;;3.40;2.00;;;;;;;;;;5060544;28;20025;-49
2021/08/07 00:34:50;;;;;;;2.97;2.00;;;;;;;;;;5070797;28;20028;-49
2021/08/07 00:37:16;;;;;;;4.00;2.35;;;;;;;;;;5085132;28;20472;-50
2021/08/07 00:39:42;;;;;;;5.88;2.80;;;;;;;;;;5073166;28;20376;-49
2021/08/07 00:42:08;;;;;;;2.78;2.03;;;;;;;;;;5086962;28;20123;-50
2021/08/07 00:44:34;;;;;;;3.83;2.08;;;;;;;;;;5068414;28;20441;-49
2021/08/07 00:47:00;;;;;;;2.20;1.92;;;;;;;;;;5072974;28;20028;-50
2021/08/07 00:49:26;;;;;;;5.10;2.42;;;;;;;;;;5076400;28;20024;-49
2021/08/07 00:51:52;;;;;;;3.00;1.98;;;;;;;;;;5088212;28;20031;-49
2021/08/07 00:54:18;;;;;;;3.13;1.85;;;;;;;;;;5092644;28;20024;-51
2021/08/07 00:56:44;;;;;;;2.08;1.88;;;;;;;;;;5085591;28;20024;-49
2021/08/07 00:59:10;;;;;;;3.13;2.15;;;;;;;;;;5087760;28;20452;-50
2021/08/07 01:01:44;;;;;;;2.08;1.73;;;;;;;;;;5073543;28;20065;-50
2021/08/07 01:04:17;;;;;;;2.70;2.03;;;;;;;;;;5075109;28;20406;-51
2021/08/07 01:06:43;;;;;;;2.83;2.28;;;;;;;;;;5081773;28;20079;-51
2021/08/07 01:09:15;;;;;;;3.17;1.90;;;;;;;;;;5090745;28;20040;-49
2021/08/07 01:11:58;;;;;;;2.50;2.03;;;;;;;;;;5081100;28;20051;-50
2021/08/07 01:14:29;;;;;;;2.72;1.88;;;;;;;;;;5070285;28;20267;-50
2021/08/07 01:16:55;;;;;;;2.53;2.20;;;;;;;;;;5068778;28;20077;-53
2021/08/07 01:19:21;;;;;;;2.70;2.30;;;;;;;;;;5064049;28;20039;-50
2021/08/07 01:21:54;;;;;;;2.80;2.20;;;;;;;;;;5069590;28;20025;-50
2021/08/07 01:24:27;;;;;;;3.40;2.28;;;;;;;;;;5059216;28;20029;-51
2021/08/07 01:26:54;;;;;;;;;;;;;;;;;;5064554;28;20024;-50
2021/08/07 01:29:20;;;;;;;4.00;2.20;;;;;;;;;;5062047;28;19912;-50
2021/08/07 01:31:47;;;;;;;3.00;2.10;;;;;;;;;;5069993;28;20030;-49
2021/08/07 01:34:13;;;;;;;2.88;1.83;;;;;;;;;;5070417;28;20063;-51
2021/08/07 01:36:39;;;;;;;2.53;1.80;;;;;;;;;;5072017;28;20020;-50
2021/08/07 01:39:07;;;;;;;4.05;2.08;;;;;;;;;;5069197;28;20017;-50
2021/08/07 01:41:33;;;;;;;5.40;2.50;;;;;;;;;;5064303;28;20025;-49
2021/08/07 01:43:59;;;;;;;6.22;3.05;;;;;;;;;;5073464;28;20376;-51
2021/08/07 01:46:26;;;;;;;5.13;2.05;;;;;;;;;;5064229;28;20068;-49
2021/08/07 01:48:56;;;;;;;5.00;2.08;;;;;;;;;;5072950;28;20428;-50
2021/08/07 01:51:26;;;;;;;2.55;2.20;;;;;;;;;;5079137;28;20040;-50
2021/08/07 01:53:54;;;;;;;2.85;1.88;;;;;;;;;;5065085;28;20128;-51
2021/08/07 01:56:26;;;;;;;3.10;2.03;;;;;;;;;;5084493;28;20093;-50
2021/08/07 01:58:53;;;;;;;2.00;1.80;;;;;;;;;;5083267;28;20581;-50
2021/08/07 02:01:24;;;;;;;2.40;2.20;;;;;;;;;;5066549;28;20104;-51
2021/08/07 02:03:50;;;;;;;3.75;2.20;;;;;;;;;;5080773;28;20039;-49
2021/08/07 02:06:16;;;;;;;2.33;2.13;;;;;;;;;;5066728;28;20020;-50
2021/08/07 02:08:42;;;;;;;3.72;2.33;;;;;;;;;;5058342;28;20040;-50
2021/08/07 02:11:08;;;;;;;2.33;2.00;;;;;;;;;;5070562;28;20052;-50
2021/08/07 02:13:35;;;;;;;3.13;2.00;;;;;;;;;;5084652;28;20089;-50
2021/08/07 02:16:02;;;;;;;2.17;1.98;;;;;;;;;;5064203;28;20507;-52
2021/08/07 02:18:29;;;;;;;2.88;2.35;;;;;;;;;;5070106;28;20041;-50
2021/08/07 02:20:55;;;;;;;2.85;2.33;;;;;;;;;;5059674;28;20070;-52
2021/08/07 02:23:21;;;;;;;6.55;2.47;;;;;;;;;;5079420;28;20044;-50
2021/08/07 02:25:50;;;;;;;3.15;2.83;;;;;;;;;;5082076;28;20020;-50
2021/08/07 02:28:16;;;;;;;6.57;2.38;;;;;;;;;;5065511;28;20108;-51
2021/08/07 02:30:42;;;;;;;3.38;2.50;;;;;;;;;;5061135;28;20041;-50
2021/08/07 02:33:09;;;;;;;5.60;2.20;;;;;;;;;;5077024;28;20111;-52
2021/08/07 02:35:35;;;;;;;5.65;2.53;;;;;;;;;;5075163;28;20028;-52
2021/08/07 02:38:02;;;;;;;3.28;2.50;;;;;;;;;;5080887;28;20108;-50
2021/08/07 02:40:28;;;;;;;3.50;2.40;;;;;;;;;;5052309;28;20154;-49
2021/08/07 02:42:54;;;;;;;5.35;2.70;;;;;;;;;;5078699;28;20100;-50
2021/08/07 02:45:21;;;;;;;3.03;2.15;;;;;;;;;;5074251;28;20108;-52
2021/08/07 02:47:47;;;;;;;2.70;2.38;;;;;;;;;;5075423;28;20452;-50
2021/08/07 02:50:13;;;;;;;3.20;2.30;;;;;;;;;;5066003;28;20039;-50
2021/08/07 02:52:39;;;;;;;2.42;2.10;;;;;;;;;;5083703;28;20024;-50
2021/08/07 02:55:06;;;;;;;3.53;2.22;;;;;;;;;;5078428;28;20391;-51
2021/08/07 02:57:32;;;;;;;2.90;2.53;;;;;;;;;;5060905;28;20125;-52
2021/08/07 02:59:58;;;;;;;2.55;2.25;;;;;;;;;;5061581;28;20060;-50
2021/08/07 03:02:25;;;;;;;3.50;2.47;;;;;;;;;;5087311;28;20012;-50
2021/08/07 03:04:51;;;;;;;3.67;2.13;;;;;;;;;;5074143;28;20356;-51
2021/08/07 03:07:18;;;;;;;3.50;2.55;;;;;;;;;;5067676;28;20052;-50
2021/08/07 03:09:43;;;;;;;2.97;2.67;;;;;;;;;;5055665;28;20033;-50
2021/08/07 03:12:09;;;;;;;5.10;2.45;;;;;;;;;;5061955;28;20086;-50
2021/08/07 03:14:36;;;;;;;3.13;2.30;;;;;;;;;;5065343;28;20017;-50
2021/08/07 03:17:02;;;;;;;5.65;2.63;;;;;;;;;;5089200;28;20112;-51
2021/08/07 03:19:28;;;;;;;7.88;2.95;;;;;;;;;;5072358;28;20082;-50
2021/08/07 03:21:54;;;;;;;3.40;2.20;;;;;;;;;;5082320;28;20027;-50
2021/08/07 03:24:20;;;;;;;5.07;2.10;;;;;;;;;;5081881;28;20025;-51
2021/08/07 03:26:46;;;;;;;2.33;2.03;;;;;;;;;;5092865;28;20073;-50
2021/08/07 03:29:12;;;;;;;5.25;1.83;;;;;;;;;;5066850;28;20041;-52
2021/08/07 03:31:38;;;;;;;3.80;2.35;;;;;;;;;;5071486;28;20480;-50
2021/08/07 03:34:04;;;;;;;4.00;2.63;;;;;;;;;;5091729;28;20028;-51
2021/08/07 03:36:30;;;;;;;2.92;2.25;;;;;;;;;;5078302;28;20024;-51
2021/08/07 03:38:56;;;;;;;3.35;2.75;;;;;;;;;;5066929;28;20040;-50
2021/08/07 03:41:22;;;;;;;3.90;2.65;;;;;;;;;;5074997;28;20024;-50
2021/08/07 03:43:48;;;;;;;2.72;2.33;;;;;;;;;;5081575;28;20047;-49
2021/08/07 03:46:14;;;;;;;5.13;2.53;;;;;;;;;;5072153;28;20030;-52
2021/08/07 03:48:40;;;;;;;4.97;2.38;;;;;;;;;;5086320;28;20027;-51
2021/08/07 03:51:06;;;;;;;3.55;2.22;;;;;;;;;;5088629;28;20036;-50
2021/08/07 03:53:32;;;;;;;3.03;2.33;;;;;;;;;;5085147;28;20031;-53
2021/08/07 03:55:58;;;;;;;2.53;2.30;;;;;;;;;;5076548;28;20033;-50
2021/08/07 03:58:24;;;;;;;2.55;2.10;;;;;;;;;;5058220;28;20029;-50
2021/08/07 04:00:50;;;;;;;3.17;2.30;;;;;;;;;;5076669;28;20040;-51
2021/08/07 04:03:16;;;;;;;2.65;1.92;;;;;;;;;;5075916;28;20045;-51
2021/08/07 04:05:42;;;;;;;2.95;1.92;;;;;;;;;;5077267;28;20036;-51
2021/08/07 04:08:09;;;;;;;2.58;1.92;;;;;;;;;;5085528;28;20029;-50
2021/08/07 04:10:35;;;;;;;3.17;1.77;;;;;;;;;;5077423;28;20044;-50
2021/08/07 04:13:01;;;;;;;2.55;2.05;;;;;;;;;;5070564;28;20033;-50
2021/08/07 04:15:27;;;;;;;3.72;2.42;;;;;;;;;;5084854;28;20753;-50
2021/08/07 04:17:53;;;;;;;4.38;2.10;;;;;;;;;;5059443;28;20036;-55
2021/08/07 04:20:19;;;;;;;3.15;1.98;;;;;;;;;;5065133;28;20481;-53
2021/08/07 04:22:45;;;;;;;6.25;2.00;;;;;;;;;;5060920;28;20103;-50
2021/08/07 04:25:11;;;;;;;2.72;2.00;;;;;;;;;;5065282;28;20121;-53
2021/08/07 04:27:37;;;;;;;4.75;2.40;;;;;;;;;;5079408;28;20491;-50
2021/08/07 04:30:05;;;;;;;9.15;4.30;;;;;;;;;;5065954;28;20468;-51
2021/08/07 04:32:31;;;;;;;2.90;2.17;;;;;;;;;;5078370;28;20158;-50
2021/08/07 04:34:57;;;;;;;2.92;2.35;;;;;;;;;;5073315;28;20116;-51
2021/08/07 04:37:23;;;;;;;2.45;2.15;;;;;;;;;;5080506;28;20115;-50
2021/08/07 04:39:49;;;;;;;5.18;2.47;;;;;;;;;;5061078;28;20092;-50
2021/08/07 04:42:15;;;;;;;5.90;2.58;;;;;;;;;;5058402;28;20029;-50
2021/08/07 04:44:41;;;;;;;2.45;2.20;;;;;;;;;;5076613;28;20127;-52
2021/08/07 04:47:07;;;;;;;6.00;3.42;;;;;;;;;;5061735;28;20033;-52
2021/08/07 04:49:33;;;;;;;2.60;2.30;;;;;;;;;;5063280;28;20108;-51
2021/08/07 04:52:00;;;;;;;4.45;2.72;;;;;;;;;;5060937;28;20435;-51
2021/08/07 04:54:26;;;;;;;6.82;2.42;;;;;;;;;;5055600;28;20057;-50
2021/08/07 04:56:52;;;;;;;3.33;2.72;;;;;;;;;;5057728;28;20060;-50
2021/08/07 04:59:18;;;;;;;4.28;2.85;;;;;;;;;;5054503;28;20037;-50
2021/08/07 05:01:44;;;;;;;7.32;2.83;;;;;;;;;;5065441;28;20448;-50
2021/08/07 05:04:10;;;;;;;3.90;2.90;;;;;;;;;;5088358;28;20028;-50
2021/08/07 05:06:37;;;;;;;4.43;2.72;;;;;;;;;;5072336;28;20028;-50
2021/08/07 05:09:03;;;;;;;3.42;2.75;;;;;;;;;;5077550;28;20119;-52
2021/08/07 05:11:29;;;;;;;5.22;3.58;;;;;;;;;;5072401;28;20425;-50
2021/08/07 05:13:55;;;;;;;6.72;3.60;;;;;;;;;;5082136;28;20062;-52
2021/08/07 05:16:21;;;;;;;8.30;4.32;;;;;;;;;;5060651;28;20033;-51
2021/08/07 05:18:47;;;;;;;5.50;3.72;;;;;;;;;;5088970;28;20033;-50
2021/08/07 05:21:13;;;;;;;5.57;3.65;;;;;;;;;;5080343;28;20032;-50
2021/08/07 05:23:39;;;;;;;6.60;3.80;;;;;;;;;;5093940;28;20647;-50
2021/08/07 05:26:05;;;;;;;5.75;3.97;;;;;;;;;;5072403;28;20048;-51
2021/08/07 05:28:31;;;;;;;6.05;3.97;;;;;;;;;;5078280;28;20110;-51
2021/08/07 05:30:57;;;;;;;5.65;3.63;;;;;;;;;;5063282;28;20029;-50
2021/08/07 05:33:23;;;;;;;4.70;3.75;;;;;;;;;;5082717;28;20036;-50
2021/08/07 05:35:49;;;;;;;5.40;3.40;;;;;;;;;;5065270;28;20503;-50
2021/08/07 05:38:17;;;;;;;5.30;3.90;;;;;;;;;;5058529;28;20063;-51
2021/08/07 05:40:43;;;;;;;4.82;3.80;;;;;;;;;;5060657;28;20032;-50
2021/08/07 05:43:09;;;;;;;5.90;3.85;;;;;;;;;;5066629;28;20024;-51
2021/08/07 05:45:35;;;;;;;8.30;4.05;;;;;;;;;;5055516;28;20464;-51
2021/08/07 05:48:01;;;;;;;6.10;3.38;;;;;;;;;;5071331;28;20020;-50
2021/08/07 05:50:27;;;;;;;5.30;3.72;;;;;;;;;;5083308;28;20035;-53
2021/08/07 05:52:53;;;;;;;5.40;3.60;;;;;;;;;;5069435;28;20123;-51
2021/08/07 05:55:20;;;;;;;5.70;4.25;;;;;;;;;;5072811;28;20053;-51
2021/08/07 05:57:46;;;;;;;4.82;3.78;;;;;;;;;;5065972;28;20037;-50
2021/08/07 06:00:12;;;;;;;4.25;3.42;;;;;;;;;;5067417;28;20040;-50
2021/08/07 06:02:38;;;;;;;4.97;3.65;;;;;;;;;;5064268;28;20031;-50
2021/08/07 06:05:04;;;;;;;6.15;4.10;;;;;;;;;;5071366;28;20025;-51
2021/08/07 06:07:30;;;;;;;6.55;3.92;;;;;;;;;;5068478;28;20373;-50
2021/08/07 06:09:56;;;;;;;4.38;3.63;;;;;;;;;;5092103;28;20035;-53
2021/08/07 06:12:22;;;;;;;5.30;3.40;;;;;;;;;;5081383;28;20035;-50
2021/08/07 06:14:48;;;;;;;4.80;3.30;;;;;;;;;;5062487;28;20025;-50
2021/08/07 06:17:14;;;;;;;5.75;3.50;;;;;;;;;;5080710;28;20020;-50
2021/08/07 06:19:40;;;;;;;7.20;3.80;;;;;;;;;;5085570;28;20365;-53
2021/08/07 06:22:06;;;;;;;5.28;3.78;;;;;;;;;;5056288;28;20060;-51
2021/08/07 06:24:32;;;;;;;5.53;3.20;;;;;;;;;;5053462;28;20524;-51
2021/08/07 06:26:58;;;;;;;5.60;3.08;;;;;;;;;;5062305;28;20029;-50
2021/08/07 06:29:24;;;;;;;4.28;3.17;;;;;;;;;;5071339;28;20483;-51
2021/08/07 06:31:50;;;;;;;3.88;3.13;;;;;;;;;;5065992;28;20020;-51
2021/08/07 06:34:16;;;;;;;6.00;3.45;;;;;;;;;;5062437;28;20036;-51
2021/08/07 06:36:42;;;;;;;4.75;3.20;;;;;;;;;;5066446;28;20036;-52
2021/08/07 06:39:08;;;;;;;7.45;3.50;;;;;;;;;;5066033;28;20050;-50
2021/08/07 06:41:34;;;;;;;4.90;3.30;;;;;;;;;;5083308;28;20043;-50
2021/08/07 06:44:00;;;;;;;4.88;3.22;;;;;;;;;;5065980;28;20556;-51
2021/08/07 06:46:26;;;;;;;5.28;3.40;;;;;;;;;;5086961;28;20030;-52
2021/08/07 06:48:52;;;;;;;4.22;3.08;;;;;;;;;;5079278;28;20268;-51
2021/08/07 06:51:18;;;;;;;5.80;3.50;;;;;;;;;;5068316;28;20028;-51
2021/08/07 06:53:46;;;;;;;6.55;3.10;;;;;;;;;;5086316;28;20503;-50
2021/08/07 06:56:12;;;;;;;5.53;3.00;;;;;;;;;;5063948;28;20032;-51
2021/08/07 06:58:38;;;;;;;6.00;2.65;;;;;;;;;;5066676;28;20025;-50
2021/08/07 07:01:04;;;;;;;5.05;2.90;;;;;;;;;;5061642;28;20037;-51
2021/08/07 07:03:30;;;;;;;5.43;2.75;;;;;;;;;;5082385;28;20052;-52
2021/08/07 07:05:55;;;;;;;5.18;2.67;;;;;;;;;;5075756;28;20349;-54
2021/08/07 07:08:22;;;;;;;3.42;2.42;;;;;;;;;;5085670;28;20024;-52
2021/08/07 07:10:48;;;;;;;3.20;2.50;;;;;;;;;;5066728;28;20043;-51
2021/08/07 07:13:14;;;;;;;10.18;2.30;;;;;;;;;;5082010;28;20071;-51
2021/08/07 07:15:40;;;;;;;6.32;2.30;;;;;;;;;;5080015;28;20117;-54
2021/08/07 07:18:06;;;;;;;7.47;2.50;;;;;;;;;;5084017;28;20499;-53
2021/08/07 07:20:32;;;;;;;7.53;3.10;;;;;;;;;;5071519;28;20031;-54
2021/08/07 07:22:58;;;;;;;4.75;2.50;;;;;;;;;;5060557;28;20436;-53
2021/08/07 07:25:24;;;;;;;4.90;2.25;;;;;;;;;;5057066;28;20392;-55
2021/08/07 07:27:50;;;;;;;3.42;2.40;;;;;;;;;;5066085;28;20024;-51
2021/08/07 07:30:17;;;;;;;5.32;2.08;;;;;;;;;;5058688;28;20032;-54
2021/08/07 07:32:43;;;;;;;8.43;2.55;;;;;;;;;;5072594;28;20039;-51
2021/08/07 07:35:10;;;;;;;3.15;1.88;;;;;;;;;;5056928;28;20029;-52
2021/08/07 07:37:36;;;;;;;3.63;2.30;;;;;;;;;;5063306;28;20029;-53
2021/08/07 07:40:02;;;;;;;5.45;1.73;;;;;;;;;;5059211;28;20029;-52
2021/08/07 07:42:28;;;;;;;3.88;2.10;;;;;;;;;;5059191;28;20377;-51
2021/08/07 07:44:54;;;;;;;2.58;1.67;;;;;;;;;;5060696;28;20033;-50
2021/08/07 07:47:20;;;;;;;3.90;1.88;;;;;;;;;;5054961;28;20028;-53
2021/08/07 07:49:46;;;;;;;2.50;1.55;;;;;;;;;;5055724;28;20055;-54
2021/08/07 07:52:11;;;;;;;2.95;1.80;;;;;;;;;;5072981;28;20052;-56
2021/08/07 07:54:37;;;;;;;5.03;1.85;;;;;;;;;;5058920;28;20155;-54
2021/08/07 07:57:04;;;;;;;3.38;1.45;;;;;;;;;;5077415;28;20029;-53
2021/08/07 07:59:30;;;;;;;6.20;1.83;;;;;;;;;;5059903;28;20341;-54
2021/08/07 08:02:01;;;;;;;5.22;1.77;;;;;;;;;;5055866;28;20047;-53
2021/08/07 08:04:29;;;;;;;1.73;1.25;;;;;;;;;;5070151;28;20048;-54
2021/08/07 08:06:55;;;;;;;2.65;1.60;;;;;;;;;;5062677;28;20360;-51
2021/08/07 08:09:21;;;;;;;2.13;1.70;;;;;;;;;;5076430;28;20033;-53
2021/08/07 08:11:47;;;;;;;2.85;1.67;;;;;;;;;;5057095;28;20036;-52
2021/08/07 08:14:13;;;;;;;2.03;1.50;;;;;;;;;;5062643;28;20055;-51
2021/08/07 08:16:39;;;;;;;4.90;1.83;;;;;;;;;;5058279;28;20036;-53
2021/08/07 08:19:05;;;;;;;3.40;2.05;;;;;;;;;;5063277;28;20025;-51
2021/08/07 08:21:31;;;;;;;5.70;1.92;;;;;;;;;;5086838;28;20442;-50
2021/08/07 08:23:58;;;;;;;4.55;1.65;;;;;;;;;;5057062;28;20028;-51
2021/08/07 08:26:24;;;;;;;2.45;1.38;;;;;;;;;;5067679;28;20028;-52
2021/08/07 08:28:50;;;;;;;2.85;1.80;;;;;;;;;;5074397;28;20084;-56
2021/08/07 08:31:19;;;;;;;3.25;1.55;;;;;;;;;;5075721;28;20099;-54
2021/08/07 08:33:45;;;;;;;6.88;1.63;;;;;;;;;;5060633;28;20060;-50
2021/08/07 08:36:11;;;;;;;2.08;1.30;;;;;;;;;;5087292;28;20031;-54
2021/08/07 08:38:37;;;;;;;2.25;1.20;;;;;;;;;;5082395;28;20099;-55
2021/08/07 08:41:03;;;;;;;2.50;1.48;;;;;;;;;;5079766;28;20436;-54
2021/08/07 08:43:29;;;;;;;4.88;1.52;;;;;;;;;;5071813;28;20021;-54
2021/08/07 08:45:56;;;;;;;2.97;1.42;;;;;;;;;;5061649;28;20017;-53
2021/08/07 08:48:22;;;;;;;7.70;2.03;;;;;;;;;;5067196;28;20391;-52
2021/08/07 08:50:49;;;;;;;2.20;1.30;;;;;;;;;;5088242;28;20043;-51
2021/08/07 08:53:15;;;;;;;2.38;1.50;;;;;;;;;;5094193;28;20077;-53
2021/08/07 08:55:42;;;;;;;5.43;1.55;;;;;;;;;;5069925;28;20100;-50
2021/08/07 08:58:08;;;;;;;4.03;1.10;;;;;;;;;;5078826;28;20032;-50
2021/08/07 09:00:34;;;;;;;3.53;1.40;;;;;;;;;;5086807;28;20103;-50
2021/08/07 09:03:00;;;;;;;2.08;1.15;;;;;;;;;;5093957;28;20039;-51
2021/08/07 09:05:26;;;;;;;1.42;0.90;;;;;;;;;;5073346;28;20031;-52
2021/08/07 09:07:52;;;;;;;3.92;1.27;;;;;;;;;;5073035;28;20369;-53
2021/08/07 09:10:21;;;;;;;2.97;1.48;;;;;;;;;;5090079;28;20061;-52
2021/08/07 09:12:49;;;;;;;1.45;1.20;;;;;;;;;;5064318;28;20048;-51
2021/08/07 09:15:25;;;;;;;2.50;1.30;;;;;;;;;;5062690;28;20024;-54
2021/08/07 09:17:51;;;;;;;3.95;1.48;;;;;;;;;;5056339;28;20120;-52
2021/08/07 09:20:30;;;;;;;2.75;1.20;;;;;;;;;;5064620;28;20032;-53
2021/08/07 09:22:58;;;;;;;2.63;0.90;;;;;;;;;;5068968;28;20036;-54
2021/08/07 09:25:26;;;;;;;13.07;1.30;;;;;;;;;;5072272;28;20025;-53
2021/08/07 09:27:53;;;;;;;2.72;1.65;;;;;;;;;;5074414;28;20024;-56
2021/08/07 09:30:19;;;;;;;2.03;1.02;;;;;;;;;;5093094;28;20032;-56
2021/08/07 09:32:46;;;;;;;1.50;1.00;;;;;;;;;;5064234;28;20032;-53
2021/08/07 09:35:12;;;;;;;3.67;1.20;;;;;;;;;;5088155;28;20024;-52
2021/08/07 09:37:38;;;;;;;2.00;1.08;;;;;;;;;;5076595;28;20074;-56
2021/08/07 09:40:06;;;;;;;2.35;1.17;;;;;;;;;;5069713;28;20119;-52
2021/08/07 09:42:33;;;;;;;3.28;1.30;;;;;;;;;;5081387;28;20031;-51
2021/08/07 09:45:00;;;;;;;4.10;1.40;;;;;;;;;;5052515;28;20020;-52
2021/08/07 09:47:26;;;;;;;2.28;1.10;;;;;;;;;;5063435;28;20484;-56
2021/08/07 09:49:52;;;;;;;1.38;1.00;;;;;;;;;;5055544;28;20033;-53
2021/08/07 09:52:18;;;;;;;1.00;0.90;;;;;;;;;;5067054;28;20023;-55
2021/08/07 09:54:45;;;;;;;3.28;1.20;;;;;;;;;;5091629;28;20107;-54
2021/08/07 09:57:28;;;;;;;1.98;1.17;;;;;;;;;;5065186;28;20052;-52
2021/08/07 09:59:54;;;;;;;1.95;0.90;;;;;;;;;;5067337;28;20430;-52
2021/08/07 10:02:24;;;;;;;1.65;0.80;;;;;;;;;;5092100;28;20051;-53
2021/08/07 10:04:50;;;;;;;1.90;0.90;;;;;;;;;;5061345;28;20052;-53
2021/08/07 10:07:16;;;;;;;2.08;1.10;;;;;;;;;;5068552;28;20028;-52
2021/08/07 10:09:42;;;;;;;2.88;1.10;;;;;;;;;;5084387;28;20028;-51
2021/08/07 10:12:10;;;;;;;4.35;0.90;;;;;;;;;;5068890;28;20048;-50
2021/08/07 10:14:37;;;;;;;2.00;1.00;;;;;;;;;;5077508;28;20028;-51
2021/08/07 10:17:04;;;;;;;2.05;1.13;;;;;;;;;;5072670;28;20115;-52
2021/08/07 10:19:31;;;;;;;2.45;1.13;;;;;;;;;;5083580;28;20036;-51
2021/08/07 10:21:58;;;;;;;3.28;1.00;;;;;;;;;;5063903;28;20074;-51
2021/08/07 10:24:24;;;;;;;2.45;0.80;;;;;;;;;;5056277;28;20346;-51
2021/08/07 10:26:51;;;;;;;4.88;0.93;;;;;;;;;;5076594;28;20434;-51
2021/08/07 10:29:18;;;;;;;2.03;0.80;;;;;;;;;;5089564;28;20543;-54
2021/08/07 10:31:45;;;;;;;1.27;0.60;;;;;;;;;;5060460;28;20033;-51
2021/08/07 10:34:11;;;;;;;1.75;0.95;;;;;;;;;;5076805;28;20020;-56
2021/08/07 10:36:38;;;;;;;1.08;0.60;;;;;;;;;;5061653;28;20029;-53
2021/08/07 10:39:06;;;;;;;1.90;0.60;;;;;;;;;;5056429;28;20028;-51
2021/08/07 10:41:33;;;;;;;1.05;0.77;;;;;;;;;;5080866;28;20028;-56
2021/08/07 10:44:00;;;;;;;1.70;0.90;;;;;;;;;;5081291;28;20461;-50
2021/08/07 10:46:27;;;;;;;3.05;0.90;;;;;;;;;;5080163;28;20021;-56
2021/08/07 10:48:53;;;;;;;1.20;0.90;;;;;;;;;;5057019;28;20043;-51
2021/08/07 10:51:19;;;;;;;1.77;0.70;;;;;;;;;;5070629;28;20384;-55
2021/08/07 10:53:49;;;;;;;1.27;0.60;;;;;;;;;;5073660;28;20025;-51
2021/08/07 10:56:33;;;;;;;0.98;0.70;;;;;;;;;;5067599;28;20036;-50
2021/08/07 10:59:19;;;;;;;1.50;0.80;;;;;;;;;;5068226;28;20577;-50
2021/08/07 11:01:46;;;;;;;0.90;0.40;;;;;;;;;;5083372;28;20024;-50
2021/08/07 11:04:13;;;;;;;1.48;0.80;;;;;;;;;;5065546;28;20029;-50
2021/08/07 11:06:39;;;;;;;3.80;0.85;;;;;;;;;;5058408;28;20029;-53
2021/08/07 11:09:30;;;;;;;1.48;0.63;;;;;;;;;;5070330;28;20040;-50
2021/08/07 11:12:14;;;;;;;1.58;0.60;;;;;;;;;;5064406;28;20052;-50
2021/08/07 11:14:42;;;;;;;1.55;0.70;;;;;;;;;;5074034;28;20110;-52
2021/08/07 11:17:08;;;;;;;1.38;0.60;;;;;;;;;;5089523;28;20035;-52
2021/08/07 11:19:49;;;;;;;0.77;0.40;;;;;;;;;;5075235;28;20037;-53
2021/08/07 11:22:16;;;;;;;1.45;0.68;;;;;;;;;;5064787;28;20071;-55
2021/08/07 11:24:48;;;;;;;5.18;0.60;;;;;;;;;;5079841;28;20029;-55
2021/08/07 11:27:14;;;;;;;1.30;0.73;;;;;;;;;;5081393;28;20499;-52
2021/08/07 11:29:59;;;;;;;2.45;0.60;;;;;;;;;;5058043;28;21867;-51
2021/08/07 11:32:25;;;;;;;0.70;0.43;;;;;;;;;;5062555;28;20115;-51
2021/08/07 11:34:51;;;;;;;1.58;0.82;;;;;;;;;;5054010;28;20120;-53
2021/08/07 11:37:20;;;;;;;3.08;0.80;;;;;;;;;;5062548;28;20044;-50
2021/08/07 11:40:05;;;;;;;1.23;0.52;;;;;;;;;;5061639;28;20086;-51
2021/08/07 11:42:39;;;;;;;0.68;0.40;;;;;;;;;;5083252;28;20130;-51
2021/08/07 11:45:05;;;;;;;1.02;0.52;;;;;;;;;;5063272;28;20048;-55
2021/08/07 11:47:32;;;;;;;2.35;0.43;;;;;;;;;;5068177;28;20099;-53
2021/08/07 11:49:58;;;;;;;1.25;0.45;;;;;;;;;;5077062;28;20027;-55
2021/08/07 11:52:29;;;;;;;1.85;0.52;;;;;;;;;;5071341;28;20457;-50
2021/08/07 11:54:56;;;;;;;1.30;0.50;;;;;;;;;;5078734;28;20078;-50
2021/08/07 11:57:23;;;;;;;1.85;0.40;;;;;;;;;;5069628;28;20067;-51
2021/08/07 11:59:49;;;;;;;1.30;0.50;;;;;;;;;;5064371;28;20086;-50
2021/08/07 12:02:16;;;;;;;2.33;0.40;;;;;;;;;;5069091;28;21232;-50
2021/08/07 12:04:42;;;;;;;0.88;0.50;;;;;;;;;;5064357;28;20052;-51
2021/08/07 12:07:11;;;;;;;2.10;0.70;;;;;;;;;;5070368;28;20043;-51
2021/08/07 12:09:37;;;;;;;0.73;0.40;;;;;;;;;;5066938;28;20048;-50
2021/08/07 12:12:04;;;;;;;1.38;0.50;;;;;;;;;;5069886;28;20471;-51
2021/08/07 12:14:30;;;;;;;4.43;0.50;;;;;;;;;;5071254;28;20491;-52
2021/08/07 12:17:04;;;;;;;1.20;0.38;;;;;;;;;;5077989;28;20027;-50
2021/08/07 12:19:30;;;;;;;1.17;0.55;;;;;;;;;;5069902;28;20040;-50
2021/08/07 12:22:04;;;;;;;1.98;0.95;;;;;;;;;;5088397;28;20024;-51
2021/08/07 12:24:29;;;;;;;;;;;;;;;;;;5076267;28;20020;-52
2021/08/07 12:26:59;;;;;;;1.08;0.40;;;;;;;;;;5073452;28;20296;-52
2021/08/07 12:29:30;;;;;;;2.15;0.40;;;;;;;;;;5088570;28;20429;-51
2021/08/07 12:31:57;;;;;;;0.80;0.35;;;;;;;;;;5082539;28;20107;-52
2021/08/07 12:34:23;;;;;;;0.90;0.40;;;;;;;;;;5077386;28;20032;-52
2021/08/07 12:37:03;;;;;;;1.88;0.32;;;;;;;;;;5074925;28;20511;-51
2021/08/07 12:39:30;;;;;;;1.95;0.40;;;;;;;;;;5080842;28;20024;-53
2021/08/07 12:41:56;;;;;;;3.28;0.40;;;;;;;;;;5060563;28;20033;-55
2021/08/07 12:44:31;;;;;;;0.63;0.40;;;;;;;;;;5068980;28;20039;-52
2021/08/07 12:46:57;;;;;;;1.45;0.50;;;;;;;;;;5078483;28;20488;-52
2021/08/07 12:49:33;;;;;;;1.50;0.43;;;;;;;;;;5070936;28;20521;-53
2021/08/07 12:52:07;;;;;;;2.25;0.47;;;;;;;;;;5055512;28;20036;-52
2021/08/07 12:54:33;;;;;;;1.33;0.43;;;;;;;;;;5075557;28;20028;-51
2021/08/07 12:56:59;;;;;;;1.73;0.40;;;;;;;;;;5063841;28;20081;-51
2021/08/07 12:59:25;;;;;;;1.15;0.38;;;;;;;;;;5071196;28;20032;-50
2021/08/07 13:02:02;;;;;;;1.45;0.30;;;;;;;;;;5070050;28;20599;-53
2021/08/07 13:04:40;;;;;;;0.77;0.60;;;;;;;;;;5084345;28;20024;-53
2021/08/07 13:07:06;;;;;;;3.53;0.77;;;;;;;;;;5076790;28;20356;-52
2021/08/07 13:09:32;;;;;;;1.10;0.50;;;;;;;;;;5081497;28;20020;-52
2021/08/07 13:12:02;;;;;;;1.20;0.50;;;;;;;;;;5070396;28;20493;-55
2021/08/07 13:14:28;;;;;;;2.88;0.50;;;;;;;;;;5057105;28;20037;-51
2021/08/07 13:16:54;;;;;;;1.45;0.40;;;;;;;;;;5061361;28;20036;-53
2021/08/07 13:19:22;;;;;;;0.95;0.50;;;;;;;;;;5071242;28;20113;-51
2021/08/07 13:21:49;;;;;;;2.17;0.32;;;;;;;;;;5072469;28;20128;-53
2021/08/07 13:24:27;;;;;;;0.55;0.30;;;;;;;;;;5074959;28;20071;-52
2021/08/07 13:26:53;;;;;;;1.02;0.45;;;;;;;;;;5068001;28;20033;-52
2021/08/07 13:29:19;;;;;;;1.15;0.60;;;;;;;;;;5059386;28;20037;-51
2021/08/07 13:31:45;;;;;;;3.47;0.47;;;;;;;;;;5067995;28;20083;-51
2021/08/07 13:34:11;;;;;;;1.58;0.40;;;;;;;;;;5073720;28;20559;-55
2021/08/07 13:36:37;;;;;;;4.47;0.50;;;;;;;;;;5073321;28;20035;-52
2021/08/07 13:39:03;;;;;;;2.53;0.50;;;;;;;;;;5092761;28;20035;-53
2021/08/07 13:41:29;;;;;;;1.38;0.40;;;;;;;;;;5084639;28;20028;-51
2021/08/07 13:43:55;;;;;;;0.63;0.17;;;;;;;;;;5063166;28;20021;-55
2021/08/07 13:46:21;;;;;;;2.50;0.50;;;;;;;;;;5073145;28;20024;-54
2021/08/07 13:48:47;;;;;;;1.02;0.40;;;;;;;;;;5065512;28;20132;-51
2021/08/07 13:51:13;;;;;;;1.58;0.57;;;;;;;;;;5082278;28;20028;-52
2021/08/07 13:53:39;;;;;;;2.13;0.95;;;;;;;;;;5085088;28;20467;-53
2021/08/07 13:56:05;;;;;;;5.63;0.63;;;;;;;;;;5086543;28;20066;-52
2021/08/07 13:58:31;;;;;;;1.00;0.50;;;;;;;;;;5076263;28;20032;-54
2021/08/07 14:00:57;;;;;;;2.67;0.50;;;;;;;;;;5080068;28;20032;-52
2021/08/07 14:03:24;;;;;;;1.17;0.50;;;;;;;;;;5066775;28;20047;-52
2021/08/07 14:05:51;;;;;;;0.65;0.20;;;;;;;;;;5075371;28;20470;-53
2021/08/07 14:08:17;;;;;;;7.55;0.40;;;;;;;;;;5071674;28;20047;-51
2021/08/07 14:10:43;;;;;;;1.92;0.95;;;;;;;;;;5062432;28;20143;-56
2021/08/07 14:13:09;;;;;;;3.50;0.60;;;;;;;;;;5066160;28;20111;-56
2021/08/07 14:15:35;;;;;;;0.73;0.40;;;;;;;;;;5092825;28;20128;-52
2021/08/07 14:18:03;;;;;;;2.03;0.65;;;;;;;;;;5065150;28;20112;-51
2021/08/07 14:20:30;;;;;;;1.65;0.60;;;;;;;;;;5078800;28;20031;-53
2021/08/07 14:22:56;;;;;;;1.60;0.47;;;;;;;;;;5067585;28;20544;-50
2021/08/07 14:25:22;;;;;;;2.72;0.55;;;;;;;;;;5060462;28;20108;-51
2021/08/07 14:27:48;;;;;;;1.23;0.50;;;;;;;;;;5054100;28;20040;-50
2021/08/07 14:30:14;;;;;;;0.98;0.55;;;;;;;;;;5067760;28;20020;-50
2021/08/07 14:32:40;;;;;;;0.63;0.30;;;;;;;;;;5061536;28;20040;-52
2021/08/07 14:35:06;;;;;;;0.40;0.30;;;;;;;;;;5072613;28;20104;-53
2021/08/07 14:37:32;;;;;;;0.82;0.43;;;;;;;;;;5078488;28;20150;-55
2021/08/07 14:39:58;;;;;;;2.42;0.52;;;;;;;;;;5091745;28;20028;-50
2021/08/07 14:42:24;;;;;;;1.50;0.35;;;;;;;;;;5080712;28;20021;-52